createdAt,value
2022-08-07T00:01:44.704Z,3.10
2022-08-07T00:04:04.453Z,3.65
2022-08-07T00:06:33.481Z,3.65
2022-08-07T00:09:16.300Z,3.60
2022-08-07T00:11:47.952Z,3.38
2022-08-07T00:14:25.382Z,3.78
2022-08-07T00:16:52.621Z,3.60
2022-08-07T00:19:21.520Z,3.00
2022-08-07T00:21:56.168Z,3.25
2022-08-07T00:24:24.025Z,3.35
2022-08-07T00:27:06.358Z,3.75
2022-08-07T00:32:03.731Z,4.13
2022-08-07T00:34:32.500Z,3.40
2022-08-07T00:36:59.036Z,3.50
2022-08-07T00:39:25.952Z,3.42
2022-08-07T00:42:02.037Z,3.53
2022-08-07T00:44:33.035Z,3.33
2022-08-07T00:47:00.869Z,3.78
2022-08-07T00:50:17.028Z,3.15
2022-08-07T00:52:17.634Z,3.45
2022-08-07T00:54:46.860Z,3.60
2022-08-07T00:57:21.903Z,3.53
2022-08-07T00:59:49.130Z,3.55
2022-08-07T01:02:28.264Z,3.15
2022-08-07T01:04:58.253Z,3.75
2022-08-07T01:07:27.986Z,3.33
2022-08-07T01:10:06.227Z,3.50
2022-08-07T01:12:40.098Z,3.22
2022-08-07T01:15:22.522Z,3.15
2022-08-07T01:18:02.881Z,3.60
2022-08-07T01:20:35.379Z,3.72
2022-08-07T01:23:12.784Z,3.10
2022-08-07T01:25:55.400Z,3.78
2022-08-07T01:28:23.769Z,3.30
2022-08-07T01:30:52.702Z,3.95
2022-08-07T01:33:20.450Z,3.78
2022-08-07T01:35:54.013Z,3.92
2022-08-07T01:38:25.259Z,4.50
2022-08-07T01:40:55.106Z,3.72
2022-08-07T01:43:23.065Z,3.72
2022-08-07T01:45:54.740Z,4.00
2022-08-07T01:48:30.597Z,4.45
2022-08-07T01:51:24.303Z,3.80
2022-08-07T01:54:09.187Z,4.13
2022-08-07T01:56:55.258Z,4.22
2022-08-07T01:59:24.454Z,4.38
2022-08-07T02:02:06.374Z,4.07
2022-08-07T02:04:52.547Z,3.80
2022-08-07T02:07:44.846Z,4.03
2022-08-07T02:10:14.448Z,4.20
2022-08-07T02:12:43.520Z,3.83
2022-08-07T02:15:14.181Z,4.10
2022-08-07T02:17:49.320Z,4.20
2022-08-07T02:20:19.898Z,4.18
2022-08-07T02:22:55.091Z,3.83
2022-08-07T02:25:47.181Z,4.35
2022-08-07T02:28:12.269Z,4.05
2022-08-07T02:30:39.366Z,4.05
2022-08-07T02:33:09.257Z,4.13
2022-08-07T02:36:30.776Z,4.32
2022-08-07T02:38:31.838Z,4.10
2022-08-07T02:41:00.616Z,4.45
2022-08-07T02:43:28.352Z,4.00
2022-08-07T02:46:01.775Z,4.05
2022-08-07T02:48:30.054Z,4.10
2022-08-07T02:51:03.086Z,4.00
2022-08-07T02:53:34.017Z,3.65
2022-08-07T02:56:12.894Z,3.63
2022-08-07T02:58:48.323Z,4.00
2022-08-07T03:01:19.059Z,4.07
2022-08-07T03:04:07.583Z,3.90
2022-08-07T03:06:40.381Z,3.60
2022-08-07T03:09:11.298Z,4.03
2022-08-07T03:11:51.909Z,4.07
2022-08-07T03:14:24.702Z,3.88
2022-08-07T03:16:52.380Z,4.35
2022-08-07T03:19:19.470Z,4.18
2022-08-07T03:21:50.786Z,3.65
2022-08-07T03:24:25.883Z,3.90
2022-08-07T03:26:58.505Z,4.13
2022-08-07T03:29:33.708Z,4.40
2022-08-07T03:32:06.828Z,4.03
2022-08-07T03:34:39.292Z,3.83
2022-08-07T03:37:16.734Z,4.32
2022-08-07T03:40:13.172Z,4.03
2022-08-07T03:42:36.027Z,4.07
2022-08-07T03:45:03.885Z,4.10
2022-08-07T03:47:45.001Z,3.70
2022-08-07T03:50:15.112Z,3.78
2022-08-07T03:52:48.518Z,3.70
2022-08-07T03:55:15.102Z,3.85
2022-08-07T03:58:34.731Z,4.18
2022-08-07T04:00:35.424Z,3.92
2022-08-07T04:03:04.005Z,4.20
2022-08-07T04:05:39.734Z,3.53
2022-08-07T04:08:12.889Z,3.80
2022-08-07T04:10:54.741Z,3.90
2022-08-07T04:13:30.500Z,3.55
2022-08-07T04:16:30.130Z,3.72
2022-08-07T04:19:03.824Z,3.97
2022-08-07T04:21:39.097Z,4.03
2022-08-07T04:24:30.576Z,3.65
2022-08-07T04:27:02.916Z,3.63
2022-08-07T04:29:49.051Z,4.10
2022-08-07T04:32:18.190Z,3.58
2022-08-07T04:34:55.427Z,3.60
2022-08-07T04:37:22.113Z,3.42
2022-08-07T04:39:50.617Z,3.63
2022-08-07T04:42:17.315Z,3.60
2022-08-07T04:44:54.227Z,3.88
2022-08-07T04:48:01.446Z,3.78
2022-08-07T04:50:42.033Z,4.15
2022-08-07T04:53:27.794Z,3.83
2022-08-07T04:58:11.156Z,3.30
2022-08-07T05:00:12.531Z,3.97
2022-08-07T05:02:44.267Z,3.70
2022-08-07T05:05:52.728Z,3.45
2022-08-07T05:08:14.594Z,3.92
2022-08-07T05:10:47.324Z,3.13
2022-08-07T05:14:51.992Z,4.10
2022-08-07T05:16:15.517Z,3.03
2022-08-07T05:18:56.125Z,3.17
2022-08-07T05:21:59.143Z,3.47
2022-08-07T05:24:19.387Z,3.40
2022-08-07T05:26:57.039Z,3.33
2022-08-07T05:29:27.133Z,3.30
2022-08-07T05:32:07.398Z,3.45
2022-08-07T05:34:37.005Z,3.53
2022-08-07T05:37:05.697Z,3.42
2022-08-07T05:40:05.660Z,3.35
2022-08-07T05:42:33.785Z,3.67
2022-08-07T05:45:14.854Z,3.53
2022-08-07T05:48:01.176Z,3.13
2022-08-07T05:50:31.879Z,3.13
2022-08-07T05:53:00.048Z,3.55
2022-08-07T05:56:03.177Z,3.20
2022-08-07T05:58:22.067Z,3.10
2022-08-07T06:01:04.816Z,3.70
2022-08-07T06:03:53.789Z,2.97
2022-08-07T06:06:20.143Z,3.13
2022-08-07T06:08:47.690Z,3.47
2022-08-07T06:11:18.361Z,3.22
2022-08-07T06:14:12.047Z,3.30
2022-08-07T06:16:35.662Z,3.20
2022-08-07T06:19:03.843Z,3.42
2022-08-07T06:22:15.858Z,3.35
2022-08-07T06:24:52.302Z,3.42
2022-08-07T06:27:07.026Z,3.50
2022-08-07T06:29:34.913Z,3.42
2022-08-07T06:32:05.523Z,3.47
2022-08-07T06:34:32.053Z,3.30
2022-08-07T06:36:58.572Z,3.28
2022-08-07T06:40:16.632Z,3.50
2022-08-07T06:42:20.449Z,3.13
2022-08-07T06:45:02.383Z,2.88
2022-08-07T06:47:28.988Z,3.00
2022-08-07T06:50:15.248Z,2.97
2022-08-07T06:52:52.953Z,3.03
2022-08-07T06:55:33.208Z,3.05
2022-08-07T06:58:13.789Z,3.20
2022-08-07T07:00:44.495Z,2.90
2022-08-07T07:03:14.339Z,3.00
2022-08-07T07:06:03.981Z,3.25
2022-08-07T07:08:31.073Z,2.95
2022-08-07T07:11:00.969Z,3.15
2022-08-07T07:13:41.453Z,2.83
2022-08-07T07:16:27.267Z,2.75
2022-08-07T07:19:11.142Z,2.83
2022-08-07T07:22:12.114Z,3.40
2022-08-07T07:24:43.012Z,3.03
2022-08-07T07:27:35.357Z,3.30
2022-08-07T07:30:26.409Z,3.03
2022-08-07T07:33:01.355Z,2.90
2022-08-07T07:35:33.591Z,3.00
2022-08-07T07:38:13.471Z,2.78
2022-08-07T07:40:42.548Z,3.00
2022-08-07T07:43:18.521Z,3.03
2022-08-07T07:46:38.456Z,2.95
2022-08-07T07:48:36.497Z,3.10
2022-08-07T07:51:07.833Z,2.70
2022-08-07T07:53:51.343Z,3.25
2022-08-07T07:56:30.156Z,2.90
2022-08-07T07:59:00.244Z,3.15
2022-08-07T08:02:03.337Z,2.65
2022-08-07T08:04:18.287Z,3.08
2022-08-07T08:06:50.734Z,2.88
2022-08-07T08:09:22.914Z,2.75
2022-08-07T08:12:01.597Z,2.83
2022-08-07T08:14:31.713Z,3.03
2022-08-07T08:17:55.434Z,2.85
2022-08-07T08:20:18.658Z,2.80
2022-08-07T08:23:01.547Z,2.50
2022-08-07T08:25:50.071Z,2.85
2022-08-07T08:28:24.109Z,2.83
2022-08-07T08:31:06.573Z,2.70
2022-08-07T08:33:35.351Z,2.42
2022-08-07T08:36:02.611Z,2.50
2022-08-07T08:38:38.585Z,2.55
2022-08-07T08:41:58.499Z,2.50
2022-08-07T08:58:13.050Z,2.33
2022-08-07T09:00:48.418Z,2.40
2022-08-07T09:03:49.920Z,2.28
2022-08-07T09:06:40.312Z,2.30
2022-08-07T09:09:21.008Z,2.60
2022-08-07T09:12:30.509Z,2.30
2022-08-07T09:16:21.523Z,2.10
2022-08-07T09:18:23.639Z,2.40
2022-08-07T09:21:13.834Z,2.40
2022-08-07T09:24:33.138Z,2.33
2022-08-07T09:27:20.174Z,2.30
2022-08-07T09:30:04.372Z,2.67
2022-08-07T09:32:40.211Z,3.20
2022-08-07T09:36:04.928Z,3.78
2022-08-07T09:38:08.653Z,4.45
2022-08-07T09:44:05.584Z,4.65
2022-08-07T09:47:50.719Z,4.68
2022-08-07T09:50:19.332Z,5.22
2022-08-07T09:53:00.122Z,4.50
2022-08-07T09:56:05.253Z,4.63
2022-08-07T09:58:53.768Z,4.25
2022-08-07T10:01:53.163Z,4.63
2022-08-07T10:04:39.293Z,5.38
2022-08-07T10:07:25.645Z,6.05
2022-08-07T10:10:21.973Z,6.55
2022-08-07T10:13:55.486Z,6.18
2022-08-07T10:16:41.855Z,6.63
2022-08-07T10:19:47.594Z,7.00
2022-08-07T10:22:33.841Z,6.88
2022-08-07T10:25:07.521Z,6.68
2022-08-07T10:27:57.420Z,6.87
2022-08-07T10:30:58.095Z,7.05
2022-08-07T10:34:06.017Z,7.63
2022-08-07T10:36:59.091Z,8.15
2022-08-07T10:40:03.216Z,8.07
2022-08-07T10:42:46.621Z,7.15
2022-08-07T10:45:57.441Z,7.32
2022-08-07T10:48:35.454Z,6.47
2022-08-07T10:51:16.654Z,6.70
2022-08-07T10:54:15.017Z,7.32
2022-08-07T10:57:25.894Z,6.40
2022-08-07T11:00:11.048Z,6.50
2022-08-07T11:03:23.150Z,7.95
2022-08-07T11:06:18.216Z,6.97
2022-08-07T11:09:11.422Z,7.60
2022-08-07T11:12:19.151Z,7.65
2022-08-07T11:15:09.683Z,7.75
2022-08-07T11:17:56.631Z,8.43
2022-08-07T11:20:41.346Z,6.40
2022-08-07T11:23:53.959Z,6.45
2022-08-07T11:26:48.274Z,6.85
2022-08-07T11:29:42.167Z,8.45
2022-08-07T11:32:47.509Z,7.85
2022-08-07T11:35:34.323Z,7.88
2022-08-07T11:38:21.447Z,7.78
2022-08-07T11:41:18.192Z,7.55
2022-08-07T11:44:22.638Z,7.57
2022-08-07T11:47:09.980Z,7.93
2022-08-07T11:50:30.338Z,7.75
2022-08-07T11:53:08.204Z,7.97
2022-08-07T11:56:24.785Z,7.50
2022-08-07T11:58:56.602Z,8.48
2022-08-07T12:02:17.765Z,7.93
2022-08-07T12:05:28.963Z,7.53
2022-08-07T12:08:25.838Z,8.35
2022-08-07T12:11:20.998Z,7.47
2022-08-07T12:14:05.433Z,7.57
2022-08-07T12:16:38.114Z,7.93
2022-08-07T12:19:35.569Z,8.63
2022-08-07T12:22:56.124Z,8.60
2022-08-07T12:26:23.305Z,8.68
2022-08-07T12:28:57.301Z,9.60
2022-08-07T12:32:04.904Z,9.07
2022-08-07T12:34:38.830Z,8.30
2022-08-07T12:37:17.001Z,8.52
2022-08-07T12:39:51.793Z,8.35
2022-08-07T12:42:28.094Z,7.95
2022-08-07T12:44:57.887Z,8.48
2022-08-07T12:47:49.486Z,8.18
2022-08-07T12:50:48.694Z,8.50
2022-08-07T12:54:03.358Z,8.93
2022-08-07T12:56:38.085Z,8.57
2022-08-07T12:59:08.353Z,9.13
2022-08-07T13:02:02.896Z,8.48
2022-08-07T13:05:02.344Z,9.18
2022-08-07T13:08:14.587Z,8.23
2022-08-07T13:10:54.175Z,8.40
2022-08-07T13:13:47.465Z,8.82
2022-08-07T13:16:40.156Z,8.15
2022-08-07T13:19:21.695Z,8.18
2022-08-07T13:22:19.695Z,7.80
2022-08-07T13:25:24.216Z,8.25
2022-08-07T13:28:11.205Z,8.30
2022-08-07T13:30:49.014Z,9.25
2022-08-07T13:34:33.647Z,7.95
2022-08-07T13:36:45.307Z,8.95
2022-08-07T13:39:49.178Z,8.18
2022-08-07T13:42:14.712Z,9.15
2022-08-07T13:44:55.356Z,8.23
2022-08-07T13:48:08.293Z,8.70
2022-08-07T13:50:35.196Z,9.23
2022-08-07T13:53:21.760Z,8.18
2022-08-07T13:55:54.560Z,8.40
2022-08-07T13:58:43.296Z,8.70
2022-08-07T14:01:26.311Z,8.50
2022-08-07T14:04:07.676Z,8.50
2022-08-07T14:06:38.522Z,7.80
2022-08-07T14:09:07.190Z,7.93
2022-08-07T14:11:53.821Z,7.47
2022-08-07T14:14:48.033Z,8.63
2022-08-07T14:18:13.098Z,8.27
2022-08-07T14:20:43.297Z,7.40
2022-08-07T14:23:08.541Z,7.72
2022-08-07T14:25:39.642Z,8.70
2022-08-07T14:28:14.859Z,10.27
2022-08-07T14:30:52.347Z,9.77
2022-08-07T14:33:23.500Z,9.50
2022-08-07T14:35:55.841Z,8.45
2022-08-07T14:38:31.211Z,8.60
2022-08-07T14:41:04.046Z,9.15
2022-08-07T14:43:55.757Z,8.90
2022-08-07T14:49:56.086Z,8.93
2022-08-07T14:52:03.843Z,8.13
2022-08-07T14:54:41.748Z,8.73
2022-08-07T15:00:06.188Z,8.73
2022-08-07T15:05:23.673Z,8.65
2022-08-07T15:07:52.448Z,8.23
2022-08-07T15:10:26.870Z,8.00
2022-08-07T15:13:00.373Z,8.30
2022-08-07T15:15:38.581Z,8.05
2022-08-07T15:18:14.448Z,8.05
2022-08-07T15:25:14.054Z,7.88
2022-08-07T15:26:47.806Z,7.65
2022-08-07T15:30:04.494Z,8.75
2022-08-07T15:32:06.315Z,7.70
2022-08-07T15:34:50.416Z,7.50
2022-08-07T15:38:17.566Z,7.85
2022-08-07T15:40:34.443Z,7.70
2022-08-07T15:43:52.894Z,7.55
2022-08-07T15:46:31.742Z,7.53
2022-08-07T15:49:13.209Z,7.50
2022-08-07T15:54:33.977Z,7.85
2022-08-07T15:57:02.628Z,7.53
2022-08-07T15:59:38.987Z,7.28
2022-08-07T16:02:08.553Z,6.90
2022-08-07T16:04:37.876Z,6.65
2022-08-07T16:08:31.178Z,6.78
2022-08-07T16:10:04.967Z,7.15
2022-08-07T16:13:05.507Z,6.55
2022-08-07T16:16:06.591Z,6.78
2022-08-07T16:19:42.717Z,6.28
2022-08-07T16:22:38.157Z,6.32
2022-08-07T16:25:54.187Z,6.72
2022-08-07T16:30:07.833Z,6.18
2022-08-07T16:32:33.036Z,6.45
2022-08-07T16:34:59.166Z,5.95
2022-08-07T16:38:06.538Z,6.35
2022-08-07T16:41:11.524Z,6.57
2022-08-07T16:44:03.953Z,6.55
2022-08-07T16:47:06.487Z,5.93
2022-08-07T16:50:20.778Z,6.57
2022-08-07T16:54:01.445Z,6.03
2022-08-07T16:57:03.874Z,5.95
2022-08-07T16:59:47.417Z,5.68
2022-08-07T17:02:28.356Z,5.60
2022-08-07T17:06:19.034Z,5.90
2022-08-07T17:09:04.380Z,6.00
2022-08-07T17:12:01.353Z,6.03
2022-08-07T17:14:27.862Z,6.50
2022-08-07T17:17:01.005Z,5.40
2022-08-07T17:20:02.852Z,5.55
2022-08-07T17:22:38.811Z,5.70
2022-08-07T17:25:19.420Z,5.93
2022-08-07T17:27:51.833Z,5.53
2022-08-07T17:30:20.121Z,5.18
2022-08-07T17:34:09.216Z,5.40
2022-08-07T17:36:13.556Z,5.28
2022-08-07T17:39:10.552Z,5.68
2022-08-07T17:42:08.331Z,5.80
2022-08-07T17:44:41.583Z,5.20
2022-08-07T17:47:42.200Z,5.55
2022-08-07T17:50:16.425Z,5.47
2022-08-07T17:54:00.187Z,5.35
2022-08-07T17:56:13.583Z,5.15
2022-08-07T17:58:56.787Z,5.18
2022-08-07T18:01:37.368Z,5.00
2022-08-07T18:04:37.462Z,5.80
2022-08-07T18:07:22.578Z,5.63
2022-08-07T18:10:06.596Z,5.20
2022-08-07T18:13:09.796Z,4.93
2022-08-07T18:15:53.461Z,5.13
2022-08-07T18:18:46.848Z,4.78
2022-08-07T18:21:37.253Z,4.68
2022-08-07T18:24:33.265Z,4.63
2022-08-07T18:27:21.796Z,4.78
2022-08-07T18:30:05.283Z,5.05
2022-08-07T18:33:11.013Z,4.60
2022-08-07T18:36:14.745Z,4.82
2022-08-07T18:40:08.054Z,4.68
2022-08-07T18:42:12.951Z,5.15
2022-08-07T18:48:00.733Z,4.60
2022-08-07T18:50:47.002Z,4.78
2022-08-07T18:53:36.617Z,4.45
2022-08-07T18:56:06.286Z,4.95
2022-08-07T18:59:01.983Z,4.70
2022-08-07T19:02:18.899Z,4.22
2022-08-07T19:04:57.684Z,5.05
2022-08-07T19:07:51.802Z,4.20
2022-08-07T19:10:49.611Z,4.55
2022-08-07T19:13:44.056Z,4.57
2022-08-07T19:17:06.592Z,4.43
2022-08-07T19:19:35.540Z,4.30
2022-08-07T19:22:31.249Z,4.25
2022-08-07T19:24:58.957Z,4.00
2022-08-07T19:28:30.796Z,4.07
2022-08-07T19:31:06.249Z,4.55
2022-08-07T19:33:15.858Z,4.07
2022-08-07T19:35:53.288Z,4.10
2022-08-07T19:38:23.519Z,4.03
2022-08-07T19:40:59.879Z,4.10
2022-08-07T19:43:48.776Z,4.30
2022-08-07T19:46:26.399Z,4.22
2022-08-07T19:49:02.494Z,4.00
2022-08-07T19:51:52.539Z,4.13
2022-08-07T19:54:33.550Z,4.72
2022-08-07T19:57:59.984Z,3.88
2022-08-07T20:00:10.066Z,3.70
2022-08-07T20:02:52.248Z,3.90
2022-08-07T20:05:25.338Z,3.63
2022-08-07T20:07:59.701Z,3.97
2022-08-07T20:10:35.177Z,4.18
2022-08-07T20:13:26.958Z,4.00
2022-08-07T20:16:01.868Z,4.20
2022-08-07T20:18:32.621Z,4.43
2022-08-07T20:21:02.235Z,3.75
2022-08-07T20:23:41.838Z,3.67
2022-08-07T20:26:10.786Z,4.65
2022-08-07T20:28:41.349Z,3.80
2022-08-07T20:31:21.717Z,4.22
2022-08-07T20:33:56.576Z,3.27
2022-08-07T20:36:27.263Z,3.88
2022-08-07T20:39:00.012Z,3.72
2022-08-07T20:41:38.479Z,3.65
2022-08-07T20:44:10.254Z,3.42
2022-08-07T20:49:59.716Z,3.72
2022-08-07T20:52:00.550Z,3.70
2022-08-07T20:54:30.339Z,3.55
2022-08-07T20:57:03.635Z,3.97
2022-08-07T21:00:06.221Z,3.78
2022-08-07T21:02:54.071Z,3.65
2022-08-07T21:05:25.776Z,3.63
2022-08-07T21:10:44.102Z,3.00
2022-08-07T21:13:13.923Z,3.40
2022-08-07T21:18:29.379Z,3.15
2022-08-07T21:21:00.903Z,3.35
2022-08-07T21:23:42.667Z,3.67
2022-08-07T21:26:24.569Z,3.50
2022-08-07T21:29:00.701Z,3.72
2022-08-07T21:32:42.673Z,3.33
2022-08-07T21:34:48.879Z,3.28
2022-08-07T21:37:58.224Z,3.20
2022-08-07T21:41:01.874Z,3.47
2022-08-07T21:43:56.288Z,3.38
2022-08-07T21:46:35.697Z,3.17
2022-08-07T21:49:25.645Z,3.33
2022-08-07T21:52:09.053Z,2.80
2022-08-07T21:55:10.859Z,3.20
2022-08-07T21:57:55.942Z,3.50
2022-08-07T22:00:25.441Z,2.97
2022-08-07T22:03:16.790Z,3.53
2022-08-07T22:05:51.341Z,3.30
2022-08-07T22:08:26.057Z,3.10
2022-08-07T22:10:59.020Z,3.28
2022-08-07T22:13:52.487Z,3.00
2022-08-07T22:16:44.691Z,3.00
2022-08-07T22:19:19.972Z,3.42
2022-08-07T22:22:17.686Z,3.10
2022-08-07T22:24:57.501Z,3.22
2022-08-07T22:27:33.995Z,2.83
2022-08-07T22:30:21.532Z,3.40
2022-08-07T22:33:07.128Z,3.13
2022-08-07T22:36:04.542Z,3.65
2022-08-07T22:38:47.842Z,3.22
2022-08-07T22:41:20.949Z,3.22
2022-08-07T22:44:01.517Z,3.17
2022-08-07T22:49:54.867Z,3.15
2022-08-07T22:52:48.333Z,2.80
2022-08-07T22:55:34.076Z,3.50
2022-08-07T22:58:37.708Z,3.05
2022-08-07T23:01:15.326Z,2.92
2022-08-07T23:04:02.618Z,3.13
2022-08-07T23:07:28.415Z,3.05
2022-08-07T23:10:37.796Z,2.97
2022-08-07T23:13:48.458Z,3.25
2022-08-07T23:17:03.766Z,3.20
2022-08-07T23:20:07.229Z,2.75
2022-08-07T23:23:01.097Z,2.67
2022-08-07T23:25:52.459Z,2.85
2022-08-07T23:28:53.377Z,3.00
2022-08-07T23:32:49.386Z,2.92
2022-08-07T23:34:46.906Z,3.08
2022-08-07T23:37:35.734Z,2.70
2022-08-07T23:40:23.279Z,3.05
2022-08-07T23:42:53.449Z,2.90
2022-08-07T23:46:03.230Z,3.03
2022-08-07T23:48:43.301Z,3.03
2022-08-07T23:53:00.258Z,3.15
2022-08-07T23:54:44.000Z,2.90
2022-08-07T23:57:34.745Z,2.85
